Time;durP1;ratioP1;P1;durP2;ratioP2;P2;SDS_P1;SDS_P2;PMS_P1;PMS_P2;Temp;Humidity;BMP_temperature;BMP_pressure;BME280_temperature;BME280_humidity;BME280_pressure;Samples;Min_cycle;Max_cycle;Signal;HPM_P1;HPM_P2
2023/10/14 00:01:13;;;;;;;16.02;2.17;;;;;;;-146.27;90.85;82579.03;5014385;28;20077;-69
2023/10/14 00:03:50;;;;;;;14.73;2.10;;;;;;;-146.27;90.30;82593.09;5018767;28;20482;-69
2023/10/14 00:06:18;;;;;;;15.60;2.35;;;;;;;-146.27;90.53;82569.00;5017701;28;20436;-69
2023/10/14 00:09:02;;;;;;;17.15;1.98;;;;;;;-146.27;90.57;82601.16;5023007;28;20412;-69
2023/10/14 00:11:35;;;;;;;14.95;1.90;;;;;;;-146.27;89.88;82615.22;5021504;28;20029;-69
2023/10/14 00:14:14;;;;;;;17.08;1.88;;;;;;;-146.27;90.17;82571.00;5018657;28;20029;-69
2023/10/14 00:16:51;;;;;;;12.02;1.70;;;;;;;-146.27;89.59;82607.16;5017540;28;20446;-69
2023/10/14 00:19:22;;;;;;;12.20;2.00;;;;;;;-146.27;89.09;82609.19;5021216;28;20087;-69
2023/10/14 00:21:49;;;;;;;15.45;3.08;;;;;;;-146.27;87.18;82488.66;5021048;28;20034;-69
2023/10/14 00:24:18;;;;;;;12.38;1.92;;;;;;;-146.27;84.24;82376.16;5024336;28;20032;-69
2023/10/14 00:26:47;;;;;;;16.52;2.13;;;;;;;-146.27;82.20;82436.41;5029015;28;20478;-69
2023/10/14 00:31:42;;;;;;;17.13;2.40;;;;;;;-146.27;82.25;82623.25;5027576;28;20065;-67
2023/10/14 00:34:08;;;;;;;13.80;1.70;;;;;;;-146.27;83.29;82689.53;5019106;28;20084;-65
2023/10/14 00:36:34;;;;;;;21.65;2.00;;;;;;;-146.27;82.67;82715.66;5014511;28;20113;-65
2023/10/14 00:39:12;;;;;;;28.55;2.17;;;;;;;-146.27;83.61;82711.63;5017257;28;20104;-66
2023/10/14 00:41:38;;;;;;;12.50;1.67;;;;;;;-146.27;82.00;82697.56;5021393;28;20064;-67
2023/10/14 00:44:04;;;;;;;10.27;1.77;;;;;;;-146.27;82.21;82681.50;5024075;28;20533;-66
2023/10/14 00:46:31;;;;;;;13.93;2.13;;;;;;;-146.27;81.33;82725.69;5016537;28;20109;-66
2023/10/14 00:49:04;;;;;;;11.57;1.60;;;;;;;-146.27;80.92;82725.69;5019513;28;20358;-66
2023/10/14 00:51:33;;;;;;;13.23;1.83;;;;;;;-146.27;78.14;82757.84;5016618;28;20029;-66
2023/10/14 00:54:02;;;;;;;13.38;1.73;;;;;;;-146.27;77.21;82757.84;5017911;28;20473;-66
2023/10/14 00:56:29;;;;;;;9.13;1.73;;;;;;;-146.27;77.84;82761.84;5026041;28;20030;-66
2023/10/14 00:59:02;;;;;;;19.52;2.63;;;;;;;-146.27;77.23;82767.88;5015902;28;20029;-66
2023/10/14 01:01:28;;;;;;;18.70;2.00;;;;;;;-146.27;77.90;82749.81;5012181;28;20030;-66
2023/10/14 01:04:05;;;;;;;17.70;2.35;;;;;;;-146.27;77.75;82765.88;5019117;28;20026;-66
2023/10/14 01:06:54;;;;;;;15.52;1.88;;;;;;;-146.27;76.46;82757.84;5024665;28;20112;-66
2023/10/14 01:09:17;;;;;;;16.80;3.17;;;;;;;-146.27;77.18;82701.59;5018086;28;20041;-67
2023/10/14 01:11:43;;;;;;;9.88;2.03;;;;;;;-146.27;76.55;82775.91;5013243;28;20034;-69
2023/10/14 01:14:08;;;;;;;8.73;1.60;;;;;;;-146.27;76.91;82761.84;5021099;28;20363;-67
2023/10/14 01:16:37;;;;;;;9.63;1.77;;;;;;;-146.27;75.93;82777.94;5021258;28;20452;-66
2023/10/14 01:19:03;;;;;;;10.23;1.52;;;;;;;-146.27;75.14;82794.00;5020605;28;20112;-66
2023/10/14 01:21:28;;;;;;;15.82;2.85;;;;;;;-146.27;72.79;82796.00;5018458;28;20106;-66
2023/10/14 01:23:58;;;;;;;10.68;1.83;;;;;;;-146.27;71.53;82789.97;5018972;28;20017;-66
2023/10/14 01:26:27;;;;;;;10.63;1.58;;;;;;;-146.27;72.61;82769.91;5018859;28;20056;-66
2023/10/14 01:28:59;;;;;;;8.55;1.95;;;;;;;-146.27;71.50;82765.88;5018684;28;20446;-66
2023/10/14 01:32:06;;;;;;;11.88;1.60;;;;;;;-146.27;68.38;82625.25;5018568;28;20465;-66
2023/10/14 01:34:42;;;;;;;11.50;1.55;;;;;;;-146.27;71.73;82725.69;5016924;28;20030;-66
2023/10/14 01:37:13;;;;;;;17.02;2.13;;;;;;;-146.27;72.56;82749.81;5019891;28;20061;-66
2023/10/14 01:39:46;;;;;;;13.80;1.90;;;;;;;-146.27;71.00;82745.78;5020673;28;20026;-66
2023/10/14 01:42:11;;;;;;;8.45;1.13;;;;;;;-146.27;70.26;82773.91;5027384;28;20060;-66
2023/10/14 01:44:36;;;;;;;17.27;2.38;;;;;;;-146.27;70.88;82757.84;5023968;28;20425;-66
2023/10/14 01:47:02;;;;;;;11.63;2.78;;;;;;;-146.27;68.91;82794.00;5023025;28;20167;-67
2023/10/14 01:49:28;;;;;;;7.63;1.30;;;;;;;-146.27;68.57;82862.31;5030125;28;20025;-67
2023/10/14 01:51:56;;;;;;;14.20;1.30;;;;;;;-146.27;68.96;82802.03;5021549;28;20054;-66
2023/10/14 01:54:22;;;;;;;12.90;2.28;;;;;;;-146.27;69.27;82781.94;5021075;28;20581;-66
2023/10/14 01:56:51;;;;;;;10.30;1.42;;;;;;;-146.27;69.46;82785.97;5024768;28;20037;-67
2023/10/14 01:59:16;;;;;;;10.98;1.50;;;;;;;-146.27;68.74;82773.91;5020277;28;20142;-67
2023/10/14 02:01:41;;;;;;;6.63;1.63;;;;;;;-146.27;69.27;82783.97;5016714;28;20033;-67
2023/10/14 02:04:08;;;;;;;9.90;1.05;;;;;;;-146.27;68.71;82745.78;5022018;28;20037;-67
2023/10/14 02:06:33;;;;;;;11.60;1.50;;;;;;;-146.27;68.74;82769.91;5016884;28;20022;-67
2023/10/14 02:09:00;;;;;;;7.70;1.60;;;;;;;-146.27;69.79;82757.84;5020869;28;20503;-67
2023/10/14 02:11:35;;;;;;;6.93;1.52;;;;;;;-146.27;69.05;82789.97;5026447;28;20033;-67
2023/10/14 02:14:09;;;;;;;8.30;1.30;;;;;;;-146.27;70.20;82749.81;5022707;28;20113;-67
2023/10/14 02:16:42;;;;;;;8.65;1.35;;;;;;;-146.27;69.99;82741.78;5020666;28;20401;-67
2023/10/14 02:19:36;;;;;;;10.10;1.55;;;;;;;-146.27;69.37;82749.81;5016768;28;20160;-67
2023/10/14 02:22:11;;;;;;;13.90;1.55;;;;;;;-146.27;67.59;82794.00;5022116;28;20552;-67
2023/10/14 02:24:36;;;;;;;11.05;1.55;;;;;;;-146.27;66.85;82773.91;5019145;28;20370;-67
2023/10/14 02:27:12;;;;;;;8.30;1.60;;;;;;;-146.27;66.66;82759.84;5030246;28;20112;-67
2023/10/14 02:29:42;;;;;;;14.98;2.20;;;;;;;-146.27;66.76;82765.88;5029696;28;20059;-67
2023/10/14 02:32:11;;;;;;;9.65;1.23;;;;;;;-146.27;66.02;82757.84;5019111;28;20059;-67
2023/10/14 02:34:37;;;;;;;7.70;1.20;;;;;;;-146.27;65.31;82753.81;5020112;28;20056;-67
2023/10/14 02:37:06;;;;;;;15.45;1.50;;;;;;;-146.27;65.61;82721.69;5026660;28;20614;-68
2023/10/14 02:39:31;;;;;;;5.82;1.45;;;;;;;-146.27;66.67;82719.66;5026893;28;20496;-67
2023/10/14 02:42:15;;;;;;;7.05;1.00;;;;;;;-146.27;67.04;82705.59;5029693;28;20120;-66
2023/10/14 02:44:48;;;;;;;13.13;1.65;;;;;;;-146.27;66.76;82741.78;5012230;28;20101;-67
2023/10/14 02:47:14;;;;;;;13.77;2.22;;;;;;;-146.27;66.89;82685.50;5022328;28;20034;-70
2023/10/14 02:49:40;;;;;;;9.77;1.58;;;;;;;-146.27;66.66;82721.69;5022313;28;20033;-70
2023/10/14 02:52:11;;;;;;;12.45;1.75;;;;;;;-146.27;66.85;82769.91;5022210;28;20033;-71
2023/10/14 02:54:45;;;;;;;10.55;1.58;;;;;;;-146.27;66.06;82773.91;5029186;28;20040;-70
2023/10/14 02:57:14;;;;;;;17.33;2.03;;;;;;;-146.27;64.23;82761.84;5021392;28;20494;-70
2023/10/14 03:04:48;;;;;;;7.40;1.38;;;;;;;-146.27;64.50;82763.88;5016611;28;20033;-71
2023/10/14 03:07:43;;;;;;;11.80;1.10;;;;;;;-146.27;64.02;82779.94;5016842;28;20453;-71
2023/10/14 03:10:12;;;;;;;10.80;1.30;;;;;;;-146.27;63.42;82789.97;5019769;28;20041;-70
2023/10/14 03:12:40;;;;;;;8.60;1.55;;;;;;;-146.27;62.46;82765.88;5021868;28;20453;-70
2023/10/14 03:15:19;;;;;;;8.80;1.77;;;;;;;-146.27;62.24;82753.81;5018220;28;20129;-70
2023/10/14 03:17:55;;;;;;;13.10;1.42;;;;;;;-146.27;62.62;82739.75;5020297;28;20137;-70
2023/10/14 03:23:10;;;;;;;10.85;1.05;;;;;;;-146.27;63.44;82753.81;5021366;28;20033;-71
2023/10/14 03:25:36;;;;;;;14.37;2.00;;;;;;;-146.27;65.26;82721.69;5026571;28;20025;-70
2023/10/14 03:30:46;;;;;;;14.23;2.10;;;;;;;-146.27;63.76;82785.97;5019202;28;20049;-70
2023/10/14 03:33:13;;;;;;;;;;;;;;;-146.27;63.51;82755.84;5019329;28;20521;-70
2023/10/14 03:35:48;;;;;;;10.60;1.27;;;;;;;-146.27;63.28;82721.69;5012578;28;19921;-70
2023/10/14 03:38:56;;;;;;;7.45;1.20;;;;;;;-146.27;63.07;82753.81;5026053;28;20032;-70
2023/10/14 03:41:10;;;;;;;8.65;1.52;;;;;;;-146.27;62.87;82753.81;5031640;28;20073;-70
2023/10/14 03:46:13;;;;;;;12.05;1.50;;;;;;;-146.27;61.23;82826.16;5017037;28;20494;-70
2023/10/14 03:48:45;;;;;;;8.93;1.80;;;;;;;-146.27;60.95;82802.03;5017794;28;20022;-70
2023/10/14 03:51:24;;;;;;;9.23;1.50;;;;;;;-146.27;60.14;82820.13;5015696;28;20492;-70
2023/10/14 03:53:57;;;;;;;17.13;2.13;;;;;;;-146.27;60.29;82777.94;5012036;28;20034;-70
2023/10/14 03:56:27;;;;;;;8.57;1.10;;;;;;;-146.27;59.16;82792.00;5025529;28;20112;-70
2023/10/14 03:58:57;;;;;;;6.18;1.20;;;;;;;-146.27;58.52;82787.97;5016425;28;20085;-70
2023/10/14 04:01:43;;;;;;;8.95;1.08;;;;;;;-146.27;58.88;82749.81;5023631;28;20577;-70
2023/10/14 04:04:19;;;;;;;12.00;2.33;;;;;;;-146.27;58.20;82818.13;5019503;28;20058;-70
2023/10/14 04:09:44;;;;;;;9.65;1.38;;;;;;;-146.27;59.33;82781.94;5022086;28;20036;-70
2023/10/14 04:14:57;;;;;;;16.88;1.98;;;;;;;-146.27;60.98;82761.84;5022214;28;20052;-70
2023/10/14 04:17:30;;;;;;;14.43;2.33;;;;;;;-146.27;61.33;82741.78;5017681;28;20076;-70
2023/10/14 04:35:25;;;;;;;13.93;1.55;;;;;;;-146.27;59.25;82794.00;5017482;28;20612;-71
2023/10/14 04:37:52;;;;;;;10.55;1.50;;;;;;;-146.27;59.65;82854.28;5025780;28;20041;-70
2023/10/14 04:42:59;;;;;;;21.63;2.75;;;;;;;-146.27;59.37;82846.25;5027485;28;20033;-70
2023/10/14 04:45:30;;;;;;;17.77;2.00;;;;;;;-146.27;59.22;82806.06;5023141;28;20397;-70
2023/10/14 04:47:57;;;;;;;6.35;1.30;;;;;;;-146.27;58.21;82800.03;5017524;28;20474;-70
2023/10/14 04:50:23;;;;;;;19.80;1.83;;;;;;;-146.27;57.63;82818.13;5023269;28;20099;-70
2023/10/14 04:52:49;;;;;;;17.08;1.98;;;;;;;-146.27;57.81;82802.03;5027442;28;20497;-70
2023/10/14 04:55:28;;;;;;;14.23;2.65;;;;;;;-146.27;58.11;82856.28;5015271;28;20025;-70
2023/10/14 04:58:11;;;;;;;11.77;1.85;;;;;;;-146.27;58.00;82830.16;5016366;28;20021;-70
2023/10/14 05:00:49;;;;;;;10.55;1.33;;;;;;;-146.27;58.36;82765.88;5023787;28;20028;-70
2023/10/14 05:03:19;;;;;;;9.48;1.42;;;;;;;-146.27;58.13;82842.22;5024049;28;20401;-70
2023/10/14 05:06:14;;;;;;;8.45;1.77;;;;;;;-146.27;58.63;82828.16;5015682;28;20078;-70
2023/10/14 05:08:51;;;;;;;13.90;2.10;;;;;;;-146.27;58.30;82836.19;5019170;28;20869;-66
2023/10/14 05:11:18;;;;;;;10.75;2.78;;;;;;;-146.27;59.17;82872.34;5030682;28;20037;-66
2023/10/14 05:16:29;;;;;;;10.15;1.38;;;;;;;-146.27;59.29;82826.16;5030358;28;20733;-66
2023/10/14 05:19:05;;;;;;;22.10;2.50;;;;;;;-146.27;58.81;82840.22;5024590;28;20101;-66
2023/10/14 05:21:43;;;;;;;11.60;1.77;;;;;;;-146.27;58.87;82810.06;5031255;28;20527;-66
2023/10/14 05:24:09;;;;;;;12.30;1.77;;;;;;;-146.27;59.94;82806.06;5023720;28;20648;-66
2023/10/14 05:26:48;;;;;;;15.18;3.03;;;;;;;-146.27;59.24;82818.13;5028061;28;20033;-67
2023/10/14 05:29:17;;;;;;;14.18;1.83;;;;;;;-146.27;58.45;82824.13;5023504;28;20025;-67
2023/10/14 05:31:50;;;;;;;16.15;1.60;;;;;;;-146.27;58.41;82781.94;5027000;28;20175;-67
2023/10/14 05:34:17;;;;;;;13.93;2.67;;;;;;;-146.27;58.26;82794.00;5026429;28;20034;-67
2023/10/14 05:36:43;;;;;;;11.32;1.90;;;;;;;-146.27;57.46;82842.22;5030454;28;20046;-68
2023/10/14 05:39:10;;;;;;;11.65;1.83;;;;;;;-146.27;57.36;82854.28;5028506;28;20656;-67
2023/10/14 05:41:38;;;;;;;9.32;1.50;;;;;;;-146.27;55.73;82810.06;5017949;28;20022;-68
2023/10/14 05:44:04;;;;;;;13.70;1.67;;;;;;;-146.27;55.44;82794.00;5027155;28;20017;-67
2023/10/14 05:46:30;;;;;;;10.75;1.67;;;;;;;-146.27;53.87;82844.22;5020656;28;20033;-68
2023/10/14 05:48:56;;;;;;;7.75;1.50;;;;;;;-146.27;53.68;82824.13;5024127;28;20058;-67
2023/10/14 05:51:22;;;;;;;12.20;1.83;;;;;;;-146.27;53.43;82810.06;5023702;28;20453;-67
2023/10/14 05:53:48;;;;;;;14.10;2.35;;;;;;;-146.27;54.22;82866.31;5016203;28;20076;-67
2023/10/14 05:56:15;;;;;;;8.57;2.30;;;;;;;-146.27;55.37;82787.97;5030481;28;20045;-67
2023/10/14 05:58:48;;;;;;;13.10;2.63;;;;;;;-146.27;56.34;82810.06;5018305;28;20112;-68
2023/10/14 06:01:16;;;;;;;14.02;1.83;;;;;;;-146.27;57.76;82787.97;5014337;28;20030;-68
2023/10/14 06:03:42;;;;;;;8.70;1.90;;;;;;;-146.27;59.04;82767.88;5017960;28;21491;-67
2023/10/14 06:06:16;;;;;;;12.07;1.75;;;;;;;-146.27;60.14;82814.09;5023786;28;20060;-67
2023/10/14 06:08:49;;;;;;;14.20;2.05;;;;;;;-146.27;60.44;82816.09;5024763;28;20458;-68
2023/10/14 06:11:16;;;;;;;11.07;1.77;;;;;;;-146.27;59.89;82765.88;5016973;28;20482;-69
2023/10/14 06:13:42;;;;;;;17.15;2.70;;;;;;;-146.27;60.15;82765.88;5014439;28;20033;-69
2023/10/14 06:16:09;;;;;;;11.05;1.83;;;;;;;-146.27;59.45;82858.28;5022089;28;20138;-67
2023/10/14 06:18:39;;;;;;;18.35;1.85;;;;;;;-146.27;59.50;82779.94;5021195;28;20036;-67
2023/10/14 06:21:06;;;;;;;15.35;1.83;;;;;;;-146.27;59.50;82814.09;5017791;28;20037;-68
2023/10/14 06:23:33;;;;;;;13.77;1.75;;;;;;;-146.27;59.36;82755.84;5028301;28;20033;-68
2023/10/14 06:25:58;;;;;;;11.98;1.58;;;;;;;-146.27;58.86;82785.97;5026609;28;20060;-65
2023/10/14 06:28:24;;;;;;;9.35;1.67;;;;;;;-146.27;60.04;82818.13;5032255;28;20049;-68
2023/10/14 06:30:51;;;;;;;8.50;1.52;;;;;;;-146.27;58.69;82794.00;5024390;28;20024;-68
2023/10/14 06:33:16;;;;;;;18.27;2.22;;;;;;;-146.27;58.86;82836.19;5025376;28;20034;-68
2023/10/14 06:35:42;;;;;;;12.27;1.90;;;;;;;-146.27;58.86;82834.19;5018522;28;20034;-68
2023/10/14 06:38:09;;;;;;;7.00;1.30;;;;;;;-146.27;58.20;82761.84;5022822;28;20136;-68
2023/10/14 06:40:36;;;;;;;13.05;1.67;;;;;;;-146.27;58.30;82800.03;5019051;28;20046;-68
2023/10/14 06:43:13;;;;;;;13.93;3.00;;;;;;;-146.27;57.82;82800.03;5014662;28;20030;-67
2023/10/14 06:45:39;;;;;;;11.68;2.03;;;;;;;-146.27;58.81;82783.97;5030432;28;20037;-69
2023/10/14 06:48:09;;;;;;;20.52;3.15;;;;;;;-146.27;59.30;82834.19;5018693;28;20080;-68
2023/10/14 06:50:37;;;;;;;11.52;2.20;;;;;;;-146.27;59.50;82822.13;5026407;28;20028;-68
2023/10/14 06:53:07;;;;;;;16.45;2.00;;;;;;;-146.27;59.52;82800.03;5020126;28;20037;-69
2023/10/14 06:55:39;;;;;;;15.23;2.17;;;;;;;-146.27;59.04;82781.94;5018444;28;20040;-68
2023/10/14 06:58:06;;;;;;;16.98;2.67;;;;;;;-146.27;58.90;82814.09;5014616;28;20029;-68
2023/10/14 07:00:33;;;;;;;16.38;1.88;;;;;;;-146.27;58.97;82800.03;5013717;28;20029;-68
2023/10/14 07:02:59;;;;;;;12.98;1.80;;;;;;;-146.27;58.86;82739.75;5028206;28;20113;-67
2023/10/14 07:05:26;;;;;;;18.02;3.17;;;;;;;-146.27;58.55;82773.91;5025916;28;20025;-67
2023/10/14 07:07:52;;;;;;;22.95;3.60;;;;;;;-146.27;59.17;82757.84;5012619;28;20056;-67
2023/10/14 07:10:17;;;;;;;13.82;2.20;;;;;;;-146.27;59.56;82745.78;5013104;28;20037;-67
2023/10/14 07:12:43;;;;;;;15.50;2.38;;;;;;;-146.27;60.14;82733.72;5012262;28;20492;-68
2023/10/14 07:15:15;;;;;;;13.02;1.77;;;;;;;-146.27;60.58;82707.63;5024428;28;20516;-69
2023/10/14 07:17:42;;;;;;;19.88;2.70;;;;;;;-146.27;61.71;82743.78;5022830;28;20037;-67
2023/10/14 07:20:12;;;;;;;12.35;1.90;;;;;;;-146.27;62.54;82699.59;5021371;28;20029;-67
2023/10/14 07:22:42;;;;;;;14.60;1.95;;;;;;;-146.27;62.37;82753.81;5021786;28;20110;-67
2023/10/14 07:25:11;;;;;;;12.73;1.50;;;;;;;-146.27;62.46;82745.78;5031135;28;20025;-67
2023/10/14 07:27:40;;;;;;;20.00;2.40;;;;;;;-146.27;61.62;82739.75;5018392;28;20048;-70
2023/10/14 07:30:13;;;;;;;13.82;1.92;;;;;;;-146.27;61.27;82685.50;5018261;28;20102;-72
2023/10/14 07:32:44;;;;;;;13.48;1.88;;;;;;;-146.27;60.31;82693.56;5027296;28;20037;-72
2023/10/14 07:35:11;;;;;;;15.82;2.13;;;;;;;-146.27;60.98;82709.63;5048483;28;20142;-72
2023/10/14 07:37:51;;;;;;;14.40;1.95;;;;;;;-146.27;60.81;82697.56;5027270;28;20030;-72
2023/10/14 07:40:24;;;;;;;19.50;2.08;;;;;;;-146.27;60.14;82671.47;5030241;28;20025;-72
2023/10/14 07:42:52;;;;;;;;;;;;;;;-146.27;59.21;82703.59;5023298;28;20112;-72
2023/10/14 07:45:19;;;;;;;15.43;1.70;;;;;;;-146.27;59.78;82725.69;5020552;28;20516;-72
2023/10/14 07:47:44;;;;;;;9.80;1.50;;;;;;;-146.27;58.97;82749.81;5028159;28;20029;-72
2023/10/14 07:50:11;;;;;;;9.50;1.65;;;;;;;-146.27;58.71;82691.53;5022088;28;20028;-71
2023/10/14 07:52:39;;;;;;;13.95;1.80;;;;;;;-146.27;58.25;82729.72;5021825;28;20126;-72
2023/10/14 07:55:05;;;;;;;12.82;1.92;;;;;;;-146.27;57.83;82689.53;5019675;28;20028;-71
2023/10/14 07:57:31;;;;;;;13.15;1.80;;;;;;;-146.27;56.25;82773.91;5024879;28;20025;-71
2023/10/14 08:00:09;;;;;;;12.27;1.85;;;;;;;-146.27;56.55;82689.53;5017944;28;20509;-71
2023/10/14 08:02:35;;;;;;;17.90;2.03;;;;;;;-146.27;54.87;82711.63;5022828;28;20044;-72
2023/10/14 08:05:03;;;;;;;10.30;1.38;;;;;;;-146.27;54.20;82641.31;5031671;28;20152;-72
2023/10/14 08:07:30;;;;;;;19.00;2.00;;;;;;;-146.27;54.64;82679.50;5049982;28;20444;-72
2023/10/14 08:09:55;;;;;;;12.77;1.70;;;;;;;-146.27;55.39;82673.47;5019823;28;20029;-72
2023/10/14 08:12:21;;;;;;;12.57;1.65;;;;;;;-146.27;54.65;82609.19;5014272;28;20033;-72
2023/10/14 08:14:46;;;;;;;15.60;2.15;;;;;;;-146.27;54.64;82679.50;5016761;28;20343;-77
2023/10/14 08:17:12;;;;;;;11.20;1.80;;;;;;;-146.27;55.16;82657.41;5018355;28;20594;-72
2023/10/14 08:19:39;;;;;;;8.20;1.95;;;;;;;-146.27;56.23;82562.97;5029176;28;20362;-73
2023/10/14 08:22:05;;;;;;;12.40;1.40;;;;;;;-146.27;55.91;82530.84;5027655;28;20048;-72
2023/10/14 08:24:30;;;;;;;12.05;1.92;;;;;;;-146.27;57.09;82633.28;5017775;28;20084;-72
2023/10/14 08:26:56;;;;;;;7.65;1.73;;;;;;;-146.27;56.74;82661.41;5027033;28;20025;-71
2023/10/14 08:29:22;;;;;;;13.88;2.33;;;;;;;-146.27;56.63;82575.03;5021556;28;20029;-68
2023/10/14 08:31:51;;;;;;;13.38;1.85;;;;;;;-146.27;56.32;82607.16;5025498;28;20397;-72
2023/10/14 08:34:17;;;;;;;13.88;2.00;;;;;;;-146.27;56.45;82585.06;5046400;28;20082;-72
2023/10/14 08:36:43;;;;;;;15.23;2.20;;;;;;;-146.27;56.79;82544.91;5030435;28;20050;-72
2023/10/14 08:39:09;;;;;;;19.70;2.40;;;;;;;-146.27;55.79;82516.78;5025386;28;20041;-68
2023/10/14 08:41:36;;;;;;;17.90;2.88;;;;;;;-146.27;55.53;82540.88;5033607;28;20477;-64
2023/10/14 08:44:08;;;;;;;14.07;1.65;;;;;;;-146.27;55.46;82504.72;5015423;28;20046;-65
2023/10/14 08:46:39;;;;;;;16.60;2.40;;;;;;;-146.27;55.56;82452.47;5018940;28;20388;-68
2023/10/14 08:49:07;;;;;;;12.90;2.40;;;;;;;-146.27;54.90;82540.88;5030087;28;20029;-65
2023/10/14 08:51:35;;;;;;;17.95;2.30;;;;;;;-146.27;53.28;82520.78;5020246;28;20101;-66
2023/10/14 08:54:06;;;;;;;9.77;1.50;;;;;;;-146.27;53.02;82464.53;5030266;28;20033;-67
2023/10/14 08:56:34;;;;;;;9.77;1.55;;;;;;;-146.27;52.36;82476.59;5030495;28;20025;-66
2023/10/14 08:59:00;;;;;;;15.77;2.25;;;;;;;-146.27;52.19;82406.28;5028337;28;20086;-66
2023/10/14 09:01:27;;;;;;;12.15;2.03;;;;;;;-146.27;51.70;82388.22;5028823;28;20030;-66
2023/10/14 09:03:53;;;;;;;11.73;2.13;;;;;;;-146.27;50.63;82362.09;5029514;28;20024;-67
2023/10/14 09:06:19;;;;;;;15.27;2.38;;;;;;;-146.27;50.75;82392.22;5022487;28;20037;-66
2023/10/14 09:08:48;;;;;;;11.30;1.77;;;;;;;-146.27;50.97;82384.19;5023760;28;20512;-66
2023/10/14 09:11:33;;;;;;;13.63;1.90;;;;;;;-146.27;51.37;82376.16;5027185;28;20582;-65
2023/10/14 09:14:06;;;;;;;13.77;1.90;;;;;;;-146.27;51.58;82352.03;5022546;28;20194;-66
2023/10/14 09:16:32;;;;;;;11.10;1.65;;;;;;;-146.27;50.84;82404.28;5020534;28;20050;-66
2023/10/14 09:19:00;;;;;;;11.15;1.52;;;;;;;-146.27;51.28;82311.88;5021714;28;20030;-66
2023/10/14 09:21:26;;;;;;;12.30;1.95;;;;;;;-146.27;50.77;82225.50;5022475;28;20025;-66
2023/10/14 09:23:52;;;;;;;7.63;1.50;;;;;;;-146.27;47.98;82327.94;5030398;28;20385;-66
2023/10/14 09:26:18;;;;;;;11.15;2.20;;;;;;;-146.27;47.55;82289.78;5018791;28;20026;-65
2023/10/14 09:28:45;;;;;;;14.30;1.60;;;;;;;-146.27;47.15;82219.47;5045973;28;20021;-66
2023/10/14 09:31:12;;;;;;;11.68;3.55;;;;;;;-146.27;46.67;82235.53;5020292;28;20389;-65
2023/10/14 09:33:41;;;;;;;7.85;1.35;;;;;;;-146.27;46.87;82100.97;5013744;28;20022;-67
2023/10/14 09:36:14;;;;;;;11.38;1.67;;;;;;;-146.27;46.90;82082.88;5020677;28;20056;-67
2023/10/14 09:38:41;;;;;;;7.90;1.60;;;;;;;-146.27;46.33;82195.38;5025576;28;20037;-68
2023/10/14 09:41:14;;;;;;;9.75;1.90;;;;;;;-146.27;46.72;82267.69;5024040;28;20041;-68
2023/10/14 09:43:48;;;;;;;11.93;1.52;;;;;;;-146.27;48.17;82299.81;5020607;28;20403;-69
2023/10/14 09:46:17;;;;;;;7.28;1.60;;;;;;;-146.27;46.52;82368.13;5022365;28;20028;-69
2023/10/14 09:48:46;;;;;;;14.85;2.70;;;;;;;-146.27;46.10;82344.00;5026753;28;20032;-67
2023/10/14 09:51:15;;;;;;;14.57;1.75;;;;;;;-146.27;46.68;82311.88;5024106;28;20701;-68
2023/10/14 09:53:44;;;;;;;13.82;1.45;;;;;;;-146.27;47.96;82289.78;5033518;28;20025;-68
2023/10/14 09:56:12;;;;;;;11.35;1.70;;;;;;;-146.27;47.41;82291.78;5039454;28;20044;-68
2023/10/14 09:58:41;;;;;;;11.35;1.98;;;;;;;-146.27;48.05;82344.00;5036289;28;20540;-67
2023/10/14 10:01:11;;;;;;;11.23;1.58;;;;;;;-146.27;49.63;82378.16;5030950;28;20116;-67
2023/10/14 10:04:18;;;;;;;11.60;1.75;;;;;;;-146.27;48.76;82348.03;5029731;28;20033;-67
2023/10/14 10:06:53;;;;;;;10.48;1.42;;;;;;;-146.27;49.01;82440.44;5031596;28;20037;-68
2023/10/14 10:09:47;;;;;;;6.97;1.30;;;;;;;-146.27;48.86;82263.66;5030968;28;20040;-68
2023/10/14 10:12:16;;;;;;;11.70;3.45;;;;;;;-146.27;44.46;82327.94;5025332;28;20053;-68
2023/10/14 10:14:44;;;;;;;10.00;1.95;;;;;;;-146.27;44.76;82197.38;5036881;28;20048;-68
2023/10/14 10:17:11;;;;;;;6.80;1.60;;;;;;;-146.27;44.25;82106.97;5033584;28;20032;-67
2023/10/14 10:20:12;;;;;;;8.15;1.75;;;;;;;-146.27;44.46;82004.53;5036511;28;20025;-67
2023/10/14 10:22:44;;;;;;;5.57;1.17;;;;;;;-146.27;42.21;82104.97;5021747;28;20042;-68
2023/10/14 10:25:14;;;;;;;4.87;1.00;;;;;;;-146.27;41.66;82066.81;5029706;28;20044;-68
2023/10/14 10:27:40;;;;;;;9.68;1.40;;;;;;;-146.27;42.89;82084.88;5040870;28;20267;-68
2023/10/14 10:30:11;;;;;;;19.77;2.03;;;;;;;-146.27;42.78;81962.34;5038443;28;20040;-69
2023/10/14 10:32:38;;;;;;;8.27;1.15;;;;;;;-146.27;43.29;81882.00;5039956;28;20060;-67
2023/10/14 10:35:06;;;;;;;11.93;2.80;;;;;;;-146.27;42.81;82046.72;5026292;28;20025;-68
2023/10/14 10:37:52;;;;;;;9.68;1.60;;;;;;;-146.27;43.12;81952.31;5020217;28;20048;-68
2023/10/14 10:40:28;;;;;;;11.90;1.40;;;;;;;-146.27;43.12;82076.84;5022068;28;20118;-71
2023/10/14 10:43:09;;;;;;;4.95;1.60;;;;;;;-146.27;42.92;82123.06;5028534;28;20024;-71
2023/10/14 10:45:40;;;;;;;14.82;2.15;;;;;;;-146.27;42.28;82131.09;5035541;28;20052;-71
2023/10/14 10:48:16;;;;;;;6.78;1.20;;;;;;;-146.27;42.30;81982.44;5028228;28;20036;-70
2023/10/14 10:50:49;;;;;;;10.02;1.52;;;;;;;-146.27;42.24;82104.97;5029497;28;20032;-71
2023/10/14 10:53:18;;;;;;;9.98;1.30;;;;;;;-146.27;41.58;82018.59;5039772;28;20384;-71
2023/10/14 10:55:46;;;;;;;13.68;1.88;;;;;;;-146.27;40.57;82042.69;5025884;28;20014;-73
2023/10/14 10:58:13;;;;;;;6.57;1.38;;;;;;;-146.27;41.21;82203.41;5021060;28;20041;-73
2023/10/14 11:00:48;;;;;;;12.77;1.65;;;;;;;-146.27;42.18;82235.53;5025873;28;20064;-72
2023/10/14 11:03:15;;;;;;;6.88;1.17;;;;;;;-146.27;42.23;82191.34;5011760;28;20040;-72
2023/10/14 11:05:42;;;;;;;14.68;1.85;;;;;;;-146.27;42.52;82070.81;5017294;28;20025;-72
2023/10/14 11:08:08;;;;;;;5.28;0.98;;;;;;;-146.27;41.72;81938.25;5034341;28;20027;-71
2023/10/14 11:10:43;;;;;;;8.45;2.22;;;;;;;-146.27;39.71;82018.59;5039544;28;20056;-71
2023/10/14 11:13:14;;;;;;;10.38;1.48;;;;;;;-146.27;39.80;81813.72;5037832;28;20028;-71
2023/10/14 11:15:48;;;;;;;7.93;1.20;;;;;;;-146.27;38.72;81705.28;5050003;28;20069;-70
2023/10/14 11:18:15;;;;;;;7.03;1.13;;;;;;;-146.27;39.29;81761.50;5031430;28;20050;-71
2023/10/14 11:20:43;;;;;;;10.77;1.58;;;;;;;-146.27;39.22;81873.97;5044476;28;20044;-71
2023/10/14 11:23:09;;;;;;;4.20;0.82;;;;;;;-146.27;39.77;81890.06;5024366;28;20029;-71
2023/10/14 11:25:42;;;;;;;11.65;1.35;;;;;;;-146.27;40.65;81837.81;5041551;28;20491;-71
2023/10/14 11:28:11;;;;;;;;;;;;;;;-146.27;40.16;81645.00;5048387;28;20090;-71
2023/10/14 11:30:44;;;;;;;9.10;1.77;;;;;;;-146.27;38.68;81454.22;5031859;28;19936;-71
2023/10/14 11:33:12;;;;;;;5.65;1.10;;;;;;;-146.27;37.82;81476.31;5033298;28;20033;-72
2023/10/14 11:35:38;;;;;;;5.15;1.30;;;;;;;-146.27;37.38;81438.16;5041683;28;20021;-70
2023/10/14 11:38:07;;;;;;;8.40;1.30;;;;;;;-146.27;37.93;81492.38;5034030;28;20076;-70
2023/10/14 11:40:37;;;;;;;5.78;1.30;;;;;;;-146.27;38.49;81749.47;5021495;28;20516;-72
2023/10/14 11:43:05;;;;;;;8.00;0.95;;;;;;;-146.27;40.21;81994.50;5028427;28;20025;-71
2023/10/14 11:45:36;;;;;;;12.27;1.50;;;;;;;-146.27;40.96;81970.41;5030994;28;20032;-72
2023/10/14 11:48:02;;;;;;;6.53;1.27;;;;;;;-146.27;40.67;81733.38;5045307;28;20069;-73
2023/10/14 11:50:32;;;;;;;6.63;1.40;;;;;;;-146.27;39.29;81657.06;5032876;28;20025;-72
2023/10/14 11:52:57;;;;;;;7.95;1.23;;;;;;;-146.27;38.90;81653.06;5045352;28;20676;-74
2023/10/14 11:55:25;;;;;;;18.30;2.92;;;;;;;-146.27;40.05;81865.94;5023230;28;20025;-72
2023/10/14 11:57:55;;;;;;;6.10;1.20;;;;;;;-146.27;40.58;81914.16;5040319;28;20428;-72
2023/10/14 12:00:21;;;;;;;8.60;1.50;;;;;;;-146.27;39.91;81918.16;5024674;28;20034;-73
2023/10/14 12:02:47;;;;;;;8.73;1.33;;;;;;;-146.27;40.22;81817.75;5023981;28;20076;-72
2023/10/14 12:05:16;;;;;;;5.30;1.20;;;;;;;-146.27;37.70;81657.06;5015181;28;20128;-73
2023/10/14 12:07:43;;;;;;;6.60;1.58;;;;;;;-146.27;38.15;81669.13;5032310;28;20038;-69